createdAt,value
2019-03-09T00:02:27.204Z,98265.50
2019-03-09T00:04:55.838Z,98263.94
2019-03-09T00:07:25.039Z,98263.27
2019-03-09T00:09:53.687Z,98262.37
2019-03-09T00:12:22.721Z,98263.50
2019-03-09T00:14:51.711Z,98264.36
2019-03-09T00:17:20.367Z,98261.41
2019-03-09T00:19:49.005Z,98252.91
2019-03-09T00:22:17.634Z,98244.76
2019-03-09T00:24:53.963Z,98240.89
2019-03-09T00:27:41.439Z,98251.27
2019-03-09T00:30:21.791Z,98251.92
2019-03-09T00:32:50.431Z,98256.44
2019-03-09T00:35:19.062Z,98250.52
2019-03-09T00:37:47.709Z,98254.69
2019-03-09T00:40:16.340Z,98254.78
2019-03-09T00:42:44.981Z,98246.77
2019-03-09T00:45:13.636Z,98246.77
2019-03-09T00:47:42.266Z,98234.53
2019-03-09T00:50:11.065Z,98239.17
2019-03-09T00:52:40.164Z,98229.91
2019-03-09T00:55:09.504Z,98215.72
2019-03-09T00:57:38.346Z,98218.53
2019-03-09T01:00:10.138Z,98216.58
2019-03-09T01:02:39.010Z,98213.77
2019-03-09T01:05:08.206Z,98201.98
2019-03-09T01:07:36.855Z,98202.94
2019-03-09T01:10:06.126Z,98189.47
2019-03-09T01:12:34.760Z,98183.14
2019-03-09T01:15:04.844Z,98191.84
2019-03-09T01:17:33.651Z,98189.95
2019-03-09T01:20:02.303Z,98187.44
2019-03-09T01:22:31.038Z,98191.84
2019-03-09T01:24:59.677Z,98192.27
2019-03-09T01:27:30.308Z,98189.80
2019-03-09T01:29:58.965Z,98188.63
2019-03-09T01:32:27.595Z,98184.20
2019-03-09T01:34:56.247Z,98185.42
2019-03-09T01:37:24.895Z,98189.61
2019-03-09T01:39:53.510Z,98184.67
2019-03-09T01:42:22.155Z,98185.09
2019-03-09T01:44:50.787Z,98169.49
2019-03-09T01:47:19.415Z,98171.83
2019-03-09T01:49:48.088Z,98165.35
2019-03-09T01:52:16.780Z,98166.73
2019-03-09T01:54:45.424Z,98164.23
2019-03-09T01:57:14.134Z,98160.55
2019-03-09T01:59:42.772Z,98161.66
2019-03-09T02:02:11.408Z,98164.56
2019-03-09T02:04:40.056Z,98158.98
2019-03-09T02:07:08.692Z,98147.14
2019-03-09T02:09:37.319Z,98144.23
2019-03-09T02:12:05.976Z,98144.61
2019-03-09T02:14:34.611Z,98130.25
2019-03-09T02:17:03.247Z,98130.51
2019-03-09T02:19:32.291Z,98144.73
2019-03-09T02:22:00.926Z,98140.98
2019-03-09T02:24:29.563Z,98130.88
2019-03-09T02:26:58.219Z,98126.77
2019-03-09T02:29:26.866Z,98130.98
2019-03-09T02:31:55.513Z,98133.48
2019-03-09T02:34:24.219Z,98129.55
2019-03-09T02:36:53.243Z,98127.52
2019-03-09T02:39:39.217Z,98127.27
2019-03-09T02:42:07.839Z,98122.14
2019-03-09T02:44:36.475Z,98103.67
2019-03-09T02:47:05.152Z,98113.30
2019-03-09T02:49:34.124Z,98110.58
2019-03-09T02:52:02.782Z,98112.40
2019-03-09T02:54:31.417Z,98103.34
2019-03-09T02:57:00.059Z,98103.56
2019-03-09T02:59:28.699Z,98099.97
2019-03-09T03:02:02.400Z,98103.59
2019-03-09T03:04:31.478Z,98095.78
2019-03-09T03:07:00.202Z,98083.74
2019-03-09T03:09:28.832Z,98087.45
2019-03-09T03:11:57.789Z,98095.85
2019-03-09T03:14:26.413Z,98096.07
2019-03-09T03:16:55.057Z,98097.13
2019-03-09T03:19:23.704Z,98085.51
2019-03-09T03:21:52.751Z,98078.44
2019-03-09T03:24:21.403Z,98091.06
2019-03-09T03:26:50.092Z,98090.09
2019-03-09T03:29:18.856Z,98075.44
2019-03-09T03:31:48.582Z,98071.48
2019-03-09T03:34:17.226Z,98067.13
2019-03-09T03:36:45.851Z,98058.30
2019-03-09T03:39:14.502Z,98055.00
2019-03-09T03:41:43.143Z,98055.95
2019-03-09T03:44:11.770Z,98044.98
2019-03-09T03:46:40.416Z,98045.88
2019-03-09T03:49:09.052Z,98036.69
2019-03-09T03:51:37.695Z,98020.63
2019-03-09T03:54:06.420Z,98022.92
2019-03-09T03:56:35.387Z,98026.02
2019-03-09T03:59:04.121Z,98024.11
2019-03-09T04:01:32.820Z,98022.53
2019-03-09T04:04:02.526Z,98024.91
2019-03-09T04:06:31.175Z,98026.13
2019-03-09T04:08:59.823Z,98020.18
2019-03-09T04:11:28.453Z,98016.34
2019-03-09T04:13:57.083Z,98010.41
2019-03-09T04:16:26.078Z,98003.00
2019-03-09T04:18:54.720Z,97991.97
2019-03-09T04:21:23.612Z,97992.47
2019-03-09T04:23:52.337Z,97989.39
2019-03-09T04:26:21.037Z,97991.11
2019-03-09T04:28:50.071Z,97993.11
2019-03-09T04:31:18.849Z,97982.81
2019-03-09T04:33:47.472Z,97981.17
2019-03-09T04:36:16.403Z,97977.08
2019-03-09T04:38:45.044Z,97967.58
2019-03-09T04:41:13.726Z,97970.61
2019-03-09T04:43:42.347Z,97966.73
2019-03-09T04:46:11.005Z,97975.06
2019-03-09T04:48:40.703Z,97970.84
2019-03-09T04:51:09.351Z,97975.57
2019-03-09T04:53:37.999Z,97978.59
2019-03-09T04:56:06.633Z,97974.63
2019-03-09T04:58:35.270Z,97970.64
2019-03-09T05:01:03.911Z,97977.21
2019-03-09T05:03:32.542Z,97973.77
2019-03-09T05:06:01.229Z,97968.19
2019-03-09T05:08:49.200Z,97967.83
2019-03-09T05:11:22.186Z,97964.39
2019-03-09T05:14:15.950Z,97964.20
2019-03-09T05:16:44.595Z,97964.52
2019-03-09T05:19:13.223Z,97961.20
2019-03-09T05:21:41.874Z,97957.95
2019-03-09T05:24:10.802Z,97952.27
2019-03-09T05:26:39.449Z,97953.78
2019-03-09T05:29:08.084Z,97950.03
2019-03-09T05:31:36.726Z,97954.09
2019-03-09T05:34:05.364Z,97954.39
2019-03-09T05:36:34.026Z,97944.33
2019-03-09T05:39:05.639Z,97954.33
2019-03-09T05:41:35.063Z,97948.73
2019-03-09T05:44:03.699Z,97941.23
2019-03-09T05:46:32.335Z,97943.14
2019-03-09T05:49:02.051Z,97940.98
2019-03-09T05:51:30.755Z,97935.72
2019-03-09T05:53:59.463Z,97930.83
2019-03-09T05:56:28.247Z,97924.98
2019-03-09T05:58:56.895Z,97911.69
2019-03-09T06:01:25.713Z,97916.03
2019-03-09T06:03:54.359Z,97916.05
2019-03-09T06:06:22.999Z,97908.80
2019-03-09T06:08:51.751Z,97910.69
2019-03-09T06:11:21.463Z,97909.02
2019-03-09T06:13:50.172Z,97896.64
2019-03-09T06:16:18.808Z,97894.28
2019-03-09T06:18:47.895Z,97900.55
2019-03-09T06:21:16.529Z,97904.17
2019-03-09T06:23:45.160Z,97902.19
2019-03-09T06:26:13.829Z,97901.99
2019-03-09T06:28:42.458Z,97900.84
2019-03-09T06:31:11.173Z,97891.24
2019-03-09T06:33:40.194Z,97877.90
2019-03-09T06:36:29.143Z,97884.78
2019-03-09T06:39:20.178Z,97880.00
2019-03-09T06:42:14.331Z,97873.01
2019-03-09T06:44:48.144Z,97884.02
2019-03-09T06:47:16.825Z,97884.11
2019-03-09T06:49:45.459Z,97882.19
2019-03-09T06:52:14.115Z,97875.34
2019-03-09T06:54:42.755Z,97878.98
2019-03-09T06:57:14.085Z,97879.20
2019-03-09T06:59:41.737Z,97888.06
2019-03-09T07:02:10.366Z,97874.41
2019-03-09T07:04:39.961Z,97884.53
2019-03-09T07:07:08.743Z,97888.75
2019-03-09T07:09:37.386Z,97916.34
2019-03-09T07:12:06.015Z,97907.75
2019-03-09T07:14:54.174Z,97898.92
2019-03-09T07:17:22.815Z,97909.38
2019-03-09T07:19:51.451Z,97906.62
2019-03-09T07:22:20.146Z,97906.49
2019-03-09T07:24:49.092Z,97904.65
2019-03-09T07:27:17.731Z,97908.14
2019-03-09T07:29:46.374Z,97902.67
2019-03-09T07:32:15.014Z,97909.14
2019-03-09T07:34:43.664Z,97909.25
2019-03-09T07:37:12.307Z,97907.50
2019-03-09T07:39:40.946Z,97915.75
2019-03-09T07:42:09.599Z,97918.06
2019-03-09T07:44:38.269Z,97925.52
2019-03-09T07:47:06.919Z,97936.03
2019-03-09T07:49:35.565Z,97968.23
2019-03-09T07:52:23.471Z,97990.58
2019-03-09T07:54:52.249Z,97969.65
2019-03-09T07:57:21.011Z,97970.22
2019-03-09T07:59:49.659Z,97971.09
2019-03-09T08:02:18.364Z,97962.48
2019-03-09T08:04:47.071Z,97976.36
2019-03-09T08:07:15.730Z,97989.14
2019-03-09T08:09:44.367Z,97968.28
2019-03-09T08:12:13.006Z,97983.85
2019-03-09T08:14:41.671Z,97959.84
2019-03-09T08:17:10.298Z,97969.70
2019-03-09T08:19:38.943Z,97966.98
2019-03-09T08:22:07.594Z,97963.45
2019-03-09T08:24:36.232Z,97961.70
2019-03-09T08:27:05.915Z,97954.23
2019-03-09T08:29:34.571Z,97970.70
2019-03-09T08:32:03.216Z,97973.67
2019-03-09T08:34:31.978Z,97962.89
2019-03-09T08:37:00.628Z,97976.91
2019-03-09T08:39:29.278Z,97971.31
2019-03-09T08:41:58.021Z,97977.78
2019-03-09T08:44:26.674Z,97999.19
2019-03-09T08:46:55.312Z,97983.59
2019-03-09T08:49:23.972Z,97973.73
2019-03-09T08:51:52.626Z,97994.85
2019-03-09T08:54:22.749Z,97974.08
2019-03-09T08:56:51.414Z,97979.23
2019-03-09T08:59:20.043Z,97993.45
2019-03-09T09:01:48.679Z,97984.80
2019-03-09T09:04:17.327Z,97984.59
2019-03-09T09:06:46.068Z,97979.50
2019-03-09T09:09:14.986Z,98005.71
2019-03-09T09:11:43.639Z,98002.77
2019-03-09T09:14:12.684Z,98016.61
2019-03-09T09:16:41.349Z,98016.14
2019-03-09T09:19:10.446Z,98011.82
2019-03-09T09:21:39.172Z,98028.07
2019-03-09T09:24:07.899Z,98011.37
2019-03-09T09:26:36.544Z,98001.53
2019-03-09T09:29:05.575Z,98008.20
2019-03-09T09:31:34.380Z,98017.34
2019-03-09T09:34:03.335Z,98015.17
2019-03-09T09:36:32.064Z,98012.28
2019-03-09T09:39:00.708Z,98036.45
2019-03-09T09:41:30.963Z,98007.69
2019-03-09T09:43:59.721Z,98018.38
2019-03-09T09:46:28.648Z,98000.05
2019-03-09T09:48:57.376Z,98006.80
2019-03-09T09:51:26.340Z,98005.33
2019-03-09T09:53:55.015Z,98019.20
2019-03-09T09:56:23.971Z,98016.44
2019-03-09T09:58:53.613Z,98014.82
2019-03-09T10:01:23.321Z,98021.66
2019-03-09T10:03:53.069Z,98019.21
2019-03-09T10:06:22.997Z,97999.53
2019-03-09T10:08:52.737Z,98009.73
2019-03-09T10:11:22.780Z,98010.41
2019-03-09T10:13:53.272Z,98008.33
2019-03-09T10:16:23.085Z,98011.22
2019-03-09T10:18:52.768Z,98014.57
2019-03-09T10:21:22.799Z,98027.80
2019-03-09T10:23:52.598Z,98034.66
2019-03-09T10:26:25.735Z,98041.12
2019-03-09T10:28:53.749Z,98019.54
2019-03-09T10:31:23.398Z,98022.73
2019-03-09T10:33:53.162Z,98037.55
2019-03-09T10:36:23.196Z,98023.94
2019-03-09T10:38:52.896Z,98042.20
2019-03-09T10:41:22.577Z,98009.47
2019-03-09T10:43:52.276Z,98046.39
2019-03-09T10:46:22.020Z,98012.19
2019-03-09T10:48:51.781Z,98010.53
2019-03-09T10:51:21.433Z,98015.21
2019-03-09T10:53:51.165Z,97998.02
2019-03-09T10:56:20.858Z,98020.10
2019-03-09T10:58:50.638Z,98013.36
2019-03-09T11:01:19.443Z,98027.66
2019-03-09T11:03:48.092Z,98031.67
2019-03-09T11:06:16.829Z,98004.73
2019-03-09T11:08:45.471Z,98000.94
2019-03-09T11:11:14.223Z,98008.42
2019-03-09T11:13:51.537Z,98023.92
2019-03-09T11:16:13.307Z,98009.82
2019-03-09T11:18:41.951Z,98019.77
2019-03-09T11:21:10.911Z,98001.41
2019-03-09T11:23:39.607Z,98006.44
2019-03-09T11:26:08.295Z,98031.55
2019-03-09T11:28:37.323Z,98008.53
2019-03-09T11:31:05.965Z,98005.99
2019-03-09T11:33:34.603Z,98013.83
2019-03-09T11:36:03.288Z,98004.00
2019-03-09T11:38:31.960Z,98007.74
2019-03-09T11:41:01.690Z,98014.31
2019-03-09T11:43:30.330Z,97999.31
2019-03-09T11:45:58.987Z,97999.47
2019-03-09T11:48:27.637Z,97997.44
2019-03-09T11:50:56.315Z,97973.01
2019-03-09T11:53:25.051Z,97989.87
2019-03-09T11:55:53.928Z,97970.63
2019-03-09T11:58:22.681Z,97974.98
2019-03-09T12:00:51.351Z,97973.81
2019-03-09T12:03:20.113Z,97963.36
2019-03-09T12:05:48.807Z,97955.12
2019-03-09T12:08:17.787Z,97943.78
2019-03-09T12:10:46.735Z,97943.61
2019-03-09T12:13:15.797Z,97938.13
2019-03-09T12:15:44.889Z,97942.64
2019-03-09T12:18:13.528Z,97943.53
2019-03-09T12:20:42.233Z,97946.24
2019-03-09T12:23:14.560Z,97951.66
2019-03-09T12:25:43.263Z,97949.97
2019-03-09T12:28:11.947Z,97949.97
2019-03-09T12:30:40.635Z,97932.52
2019-03-09T12:33:09.578Z,97932.12
2019-03-09T12:35:38.718Z,97914.64
2019-03-09T12:38:07.370Z,97925.89
2019-03-09T12:40:36.034Z,97931.62
2019-03-09T12:43:04.670Z,97926.12
2019-03-09T12:45:33.348Z,97908.49
2019-03-09T12:48:01.989Z,97911.59
2019-03-09T12:50:30.818Z,97919.45
2019-03-09T12:52:59.566Z,97922.34
2019-03-09T12:55:28.322Z,97913.37
2019-03-09T12:57:59.784Z,97905.80
2019-03-09T13:00:28.494Z,97901.55
2019-03-09T13:02:57.139Z,97900.17
2019-03-09T13:05:25.804Z,97886.36
2019-03-09T13:07:54.446Z,97883.19
2019-03-09T13:10:23.176Z,97891.41
2019-03-09T13:12:51.844Z,97882.61
2019-03-09T13:15:20.567Z,97889.81
2019-03-09T13:17:49.295Z,97891.06
2019-03-09T13:20:18.047Z,97880.12
2019-03-09T13:22:47.111Z,97863.61
2019-03-09T13:25:15.855Z,97864.45
2019-03-09T13:27:45.504Z,97890.30
2019-03-09T13:30:15.238Z,97903.17
2019-03-09T13:32:43.982Z,97883.34
2019-03-09T13:35:12.648Z,97891.47
2019-03-09T13:37:41.293Z,97891.38
2019-03-09T13:40:10.067Z,97905.23
2019-03-09T13:42:38.749Z,97892.05
2019-03-09T13:45:08.095Z,97890.31
2019-03-09T13:47:36.772Z,97894.27
2019-03-09T13:50:05.669Z,97888.30
2019-03-09T13:52:34.318Z,97885.80
2019-03-09T13:55:02.960Z,97879.47
2019-03-09T13:57:31.618Z,97874.87
2019-03-09T14:00:00.633Z,97875.16
2019-03-09T14:02:29.703Z,97852.41
2019-03-09T14:04:59.333Z,97853.02
2019-03-09T14:07:27.994Z,97844.23
2019-03-09T14:09:57.566Z,97851.66
2019-03-09T14:12:26.216Z,97824.34
2019-03-09T14:14:54.864Z,97838.55
2019-03-09T14:17:24.475Z,97858.83
2019-03-09T14:19:53.129Z,97844.14
2019-03-09T14:22:21.758Z,97845.23
2019-03-09T14:24:50.409Z,97842.41
2019-03-09T14:27:19.138Z,97832.19
2019-03-09T14:29:47.947Z,97846.28
2019-03-09T14:32:16.610Z,97831.40
2019-03-09T14:34:45.273Z,97827.33
2019-03-09T14:37:13.916Z,97822.20
2019-03-09T14:39:42.567Z,97833.96
2019-03-09T14:42:11.591Z,97843.39
2019-03-09T14:44:41.339Z,97863.32
2019-03-09T14:47:10.273Z,97858.07
2019-03-09T14:49:39.099Z,97837.78
2019-03-09T14:52:07.834Z,97833.91
2019-03-09T14:54:36.472Z,97838.09
2019-03-09T14:57:05.279Z,97840.95
2019-03-09T14:59:33.950Z,97833.75
2019-03-09T15:02:02.607Z,97821.45
2019-03-09T15:04:32.660Z,97807.41
2019-03-09T15:07:03.807Z,97796.48
2019-03-09T15:09:32.466Z,97783.61
2019-03-09T15:12:01.135Z,97758.81
2019-03-09T15:14:30.102Z,97755.70
2019-03-09T15:16:58.764Z,97754.63
2019-03-09T15:19:27.701Z,97760.61
2019-03-09T15:21:56.765Z,97741.42
2019-03-09T15:24:25.428Z,97717.98
2019-03-09T15:26:54.087Z,97719.86
2019-03-09T15:29:22.808Z,97705.91
2019-03-09T15:31:51.472Z,97686.05
2019-03-09T15:34:20.138Z,97680.67
2019-03-09T15:36:48.771Z,97673.28
2019-03-09T15:39:17.438Z,97679.97
2019-03-09T15:41:46.245Z,97663.41
2019-03-09T15:44:15.003Z,97686.16
2019-03-09T15:46:43.691Z,97713.81
2019-03-09T15:49:12.422Z,97712.73
2019-03-09T15:51:41.209Z,97700.95
2019-03-09T15:54:09.967Z,97706.05
2019-03-09T15:56:38.611Z,97704.54
2019-03-09T15:59:07.254Z,97695.84
2019-03-09T16:01:35.906Z,97684.27
2019-03-09T16:04:04.556Z,97691.75
2019-03-09T16:06:33.208Z,97701.67
2019-03-09T16:09:04.566Z,97703.58
2019-03-09T16:11:44.400Z,97708.86
2019-03-09T16:14:05.610Z,97706.67
2019-03-09T16:16:34.524Z,97686.37
2019-03-09T16:19:03.260Z,97686.09
2019-03-09T16:21:32.206Z,97684.56
2019-03-09T16:24:00.849Z,97672.22
2019-03-09T16:26:29.500Z,97667.77
2019-03-09T16:28:58.170Z,97659.39
2019-03-09T16:31:26.805Z,97640.88
2019-03-09T16:33:55.492Z,97634.12
2019-03-09T16:36:24.140Z,97632.88
2019-03-09T16:38:52.783Z,97639.50
2019-03-09T16:41:21.439Z,97643.56
2019-03-09T16:43:50.099Z,97641.73
2019-03-09T16:46:18.746Z,97645.05
2019-03-09T16:48:47.375Z,97651.73
2019-03-09T16:51:16.335Z,97646.55
2019-03-09T16:53:45.005Z,97646.75
2019-03-09T16:56:13.687Z,97644.88
2019-03-09T16:58:42.339Z,97643.45
2019-03-09T17:01:10.982Z,97640.29
2019-03-09T17:03:39.693Z,97623.85
2019-03-09T17:06:08.486Z,97629.95
2019-03-09T17:08:37.131Z,97620.26
2019-03-09T17:11:06.130Z,97627.59
2019-03-09T17:13:34.790Z,97630.16
2019-03-09T17:16:03.433Z,97625.66
2019-03-09T17:18:32.077Z,97638.05
2019-03-09T17:21:01.232Z,97627.72
2019-03-09T17:23:29.880Z,97627.64
2019-03-09T17:25:58.539Z,97634.20
2019-03-09T17:28:27.198Z,97643.09
2019-03-09T17:30:55.834Z,97644.30
2019-03-09T17:33:24.508Z,97642.64
2019-03-09T17:35:53.212Z,97634.12
2019-03-09T17:38:21.878Z,97644.30
2019-03-09T17:40:50.520Z,97631.08
2019-03-09T17:43:20.152Z,97633.81
2019-03-09T17:45:48.914Z,97632.25
2019-03-09T17:48:17.555Z,97622.23
2019-03-09T17:50:46.207Z,97623.22
2019-03-09T17:53:15.215Z,97616.34
2019-03-09T17:55:44.207Z,97610.59
2019-03-09T17:58:12.866Z,97600.72
2019-03-09T18:00:44.515Z,97601.69
2019-03-09T18:03:13.179Z,97618.24
2019-03-09T18:05:41.811Z,97602.60
2019-03-09T18:08:10.459Z,97600.05
2019-03-09T18:10:40.971Z,97614.83
2019-03-09T18:13:09.610Z,97613.39
2019-03-09T18:15:38.250Z,97627.21
2019-03-09T18:18:07.266Z,97614.03
2019-03-09T18:20:36.174Z,97613.48
2019-03-09T18:23:04.818Z,97626.58
2019-03-09T18:25:33.475Z,97646.72
2019-03-09T18:28:02.116Z,97663.66
2019-03-09T18:30:31.130Z,97688.80
2019-03-09T18:32:59.876Z,97670.17
2019-03-09T18:35:28.802Z,97686.05
2019-03-09T18:37:57.444Z,97679.30
2019-03-09T18:40:26.111Z,97707.45
2019-03-09T18:42:55.896Z,97712.98
2019-03-09T18:45:24.562Z,97698.12
2019-03-09T18:47:53.599Z,97683.11
2019-03-09T18:50:22.316Z,97692.88
2019-03-09T18:52:50.969Z,97677.43
2019-03-09T18:55:19.649Z,97671.20
2019-03-09T18:57:49.105Z,97670.07
2019-03-09T19:00:18.916Z,97653.63
2019-03-09T19:02:48.768Z,97684.28
2019-03-09T19:05:18.599Z,97678.58
2019-03-09T19:07:48.737Z,97675.20
2019-03-09T19:10:18.506Z,97675.20
2019-03-09T19:12:48.243Z,97678.94
2019-03-09T19:15:19.061Z,97674.20
2019-03-09T19:17:48.829Z,97689.81
2019-03-09T19:20:18.578Z,97712.77
2019-03-09T19:22:48.302Z,97701.27
2019-03-09T19:25:18.112Z,97716.59
2019-03-09T19:27:47.850Z,97706.30
2019-03-09T19:30:17.704Z,97716.86
2019-03-09T19:32:47.438Z,97715.70
2019-03-09T19:35:17.190Z,97722.13
2019-03-09T19:37:47.166Z,97739.08
2019-03-09T19:40:16.974Z,97738.72
2019-03-09T19:42:46.792Z,97742.70
2019-03-09T19:45:16.531Z,97768.16
2019-03-09T19:47:46.199Z,97755.94
2019-03-09T19:50:17.211Z,97749.16
2019-03-09T19:52:47.008Z,97754.41
2019-03-09T19:55:17.055Z,97775.39
2019-03-09T19:57:47.583Z,97761.53
2019-03-09T20:00:17.456Z,97756.05
2019-03-09T20:02:47.179Z,97751.90
2019-03-09T20:05:16.947Z,97774.08
2019-03-09T20:07:46.674Z,97776.86
2019-03-09T20:10:16.441Z,97770.42
2019-03-09T20:12:46.102Z,97773.48
2019-03-09T20:15:15.949Z,97782.93
2019-03-09T20:17:46.068Z,97778.94
2019-03-09T20:20:16.121Z,97784.47
2019-03-09T20:22:46.018Z,97774.00
2019-03-09T20:25:15.816Z,97789.49
2019-03-09T20:27:45.559Z,97801.43
2019-03-09T20:30:16.570Z,97795.83
2019-03-09T20:32:46.442Z,97802.91
2019-03-09T20:35:16.536Z,97810.39
2019-03-09T20:37:46.282Z,97811.18
2019-03-09T20:40:16.188Z,97784.78
2019-03-09T20:42:45.088Z,97810.61
2019-03-09T20:45:14.899Z,97792.96
2019-03-09T20:47:43.682Z,97798.38
2019-03-09T20:50:13.059Z,97803.48
2019-03-09T20:52:41.722Z,97819.53
2019-03-09T20:55:11.627Z,97801.88
2019-03-09T20:57:40.307Z,97801.58
2019-03-09T21:00:13.161Z,97799.56
2019-03-09T21:02:42.347Z,97815.58
2019-03-09T21:05:11.585Z,97816.23
2019-03-09T21:07:40.347Z,97809.46
2019-03-09T21:10:09.551Z,97811.40
2019-03-09T21:12:38.271Z,97826.05
2019-03-09T21:15:07.264Z,97824.52
2019-03-09T21:17:36.012Z,97830.44
2019-03-09T21:20:05.768Z,97843.48
2019-03-09T21:22:34.943Z,97873.63
2019-03-09T21:25:05.448Z,97866.67
2019-03-09T21:27:34.619Z,97849.38
2019-03-09T21:30:03.736Z,97867.94
2019-03-09T21:32:35.780Z,97870.77
2019-03-09T21:35:05.489Z,97882.20
2019-03-09T21:37:34.536Z,97868.80
2019-03-09T21:40:04.012Z,97865.50
2019-03-09T21:42:33.626Z,97866.17
2019-03-09T21:45:02.733Z,97860.94
2019-03-09T21:47:31.828Z,97878.09
2019-03-09T21:50:00.737Z,97884.59
2019-03-09T21:52:30.432Z,97874.34
2019-03-09T21:54:59.102Z,97900.59
2019-03-09T21:57:27.766Z,97886.52
2019-03-09T21:59:56.428Z,97888.67
2019-03-09T22:02:25.171Z,97879.23
2019-03-09T22:04:53.871Z,97894.98
2019-03-09T22:07:22.605Z,97898.02
2019-03-09T22:09:52.053Z,97890.91
2019-03-09T22:12:21.653Z,97893.07
2019-03-09T22:14:53.019Z,97906.39
2019-03-09T22:17:22.015Z,97907.38
2019-03-09T22:19:50.759Z,97900.02
2019-03-09T22:22:19.438Z,97922.05
2019-03-09T22:24:48.139Z,97919.45
2019-03-09T22:27:16.885Z,97898.38
2019-03-09T22:29:46.239Z,97915.77
2019-03-09T22:32:15.481Z,97916.78
2019-03-09T22:34:44.837Z,97919.30
2019-03-09T22:37:14.115Z,97934.64
2019-03-09T22:39:43.245Z,97929.41
2019-03-09T22:42:12.277Z,97937.05
2019-03-09T22:44:43.796Z,97933.50
2019-03-09T22:47:14.260Z,97938.06
2019-03-09T22:49:43.557Z,97937.49
2019-03-09T22:52:12.824Z,97947.84
2019-03-09T22:54:41.936Z,97945.89
2019-03-09T22:57:11.312Z,97949.64
2019-03-09T22:59:41.024Z,97966.13
2019-03-09T23:02:10.010Z,97941.49
2019-03-09T23:04:38.887Z,97945.39
2019-03-09T23:07:08.511Z,97953.35
2019-03-09T23:09:37.902Z,97949.73
2019-03-09T23:12:07.539Z,97936.10
2019-03-09T23:14:36.730Z,97936.77
2019-03-09T23:17:07.328Z,97933.25
2019-03-09T23:19:36.312Z,97941.66
2019-03-09T23:22:05.392Z,97944.16
2019-03-09T23:24:34.673Z,97952.88
2019-03-09T23:27:04.081Z,97950.40
2019-03-09T23:29:33.487Z,97946.66
2019-03-09T23:32:03.751Z,97950.84
2019-03-09T23:34:33.087Z,97956.67
2019-03-09T23:37:02.486Z,97954.02
2019-03-09T23:39:32.863Z,97968.45
2019-03-09T23:42:02.064Z,97965.20
2019-03-09T23:44:30.951Z,97971.81
2019-03-09T23:47:00.218Z,97970.43
2019-03-09T23:49:29.289Z,97973.03
2019-03-09T23:51:59.700Z,97965.42
2019-03-09T23:54:28.397Z,97969.61
2019-03-09T23:56:57.048Z,97958.36
2019-03-09T23:59:25.778Z,97959.17
